sensor_id;sensor_type;location;lat;lon;timestamp;pressure;altitude;pressure_sealevel;temperature;humidity
60725;BME280;59881;36.722;-4.462;2023-02-17T00:03:43;101228.88;;;7.47;82.52
60725;BME280;59881;36.722;-4.462;2023-02-17T00:06:12;101926.34;;;11.45;83.22
60725;BME280;59881;36.722;-4.462;2023-02-17T00:08:38;101661.50;;;10.09;83.08
60725;BME280;59881;36.722;-4.462;2023-02-17T00:11:04;101887.59;;;11.45;83.52
60725;BME280;59881;36.722;-4.462;2023-02-17T00:13:30;101735.28;;;10.27;82.99
60725;BME280;59881;36.722;-4.462;2023-02-17T00:15:56;101877.81;;;10.21;83.11
60725;BME280;59881;36.722;-4.462;2023-02-17T00:18:22;101293.88;;;7.79;82.89
60725;BME280;59881;36.722;-4.462;2023-02-17T00:20:48;101462.47;;;8.03;83.34
60725;BME280;59881;36.722;-4.462;2023-02-17T00:23:13;101619.19;;;9.78;83.20
60725;BME280;59881;36.722;-4.462;2023-02-17T00:25:39;101310.06;;;7.88;83.22
60725;BME280;59881;36.722;-4.462;2023-02-17T00:28:05;101237.38;;;7.13;83.16
60725;BME280;59881;36.722;-4.462;2023-02-17T00:30:30;101883.41;;;11.24;83.61
60725;BME280;59881;36.722;-4.462;2023-02-17T00:32:56;101357.41;;;7.66;83.56
60725;BME280;59881;36.722;-4.462;2023-02-17T00:35:21;101502.38;;;8.71;83.56
60725;BME280;59881;36.722;-4.462;2023-02-17T00:37:47;101620.22;;;9.56;83.81
60725;BME280;59881;36.722;-4.462;2023-02-17T00:40:13;101882.25;;;11.12;83.91
60725;BME280;59881;36.722;-4.462;2023-02-17T00:42:39;101885.03;;;11.09;84.47
60725;BME280;59881;36.722;-4.462;2023-02-17T00:45:05;101282.88;;;7.52;83.77
60725;BME280;59881;36.722;-4.462;2023-02-17T00:47:31;101005.34;;;5.67;84.16
60725;BME280;59881;36.722;-4.462;2023-02-17T00:49:56;101878.13;;;11.06;84.53
60725;BME280;59881;36.722;-4.462;2023-02-17T00:52:22;101633.53;;;9.53;84.43
60725;BME280;59881;36.722;-4.462;2023-02-17T00:54:48;101766.09;;;9.49;84.55
60725;BME280;59881;36.722;-4.462;2023-02-17T00:57:13;101363.25;;;7.10;84.61
60725;BME280;59881;36.722;-4.462;2023-02-17T00:59:39;100496.56;;;2.62;83.95
60725;BME280;59881;36.722;-4.462;2023-02-17T01:02:04;101382.13;;;5.56;85.13
60725;BME280;59881;36.722;-4.462;2023-02-17T01:04:30;100907.88;;;5.01;84.84
60725;BME280;59881;36.722;-4.462;2023-02-17T01:06:55;100699.94;;;2.46;84.62
60725;BME280;59881;36.722;-4.462;2023-02-17T01:09:21;101826.34;;;9.94;85.38
60725;BME280;59881;36.722;-4.462;2023-02-17T01:11:46;101911.59;;;10.87;85.77
60725;BME280;59881;36.722;-4.462;2023-02-17T01:14:13;101975.03;;;10.84;85.39
60725;BME280;59881;36.722;-4.462;2023-02-17T01:16:40;101890.88;;;10.79;86.00
60725;BME280;59881;36.722;-4.462;2023-02-17T01:19:11;101423.53;;;7.53;85.53
60725;BME280;59881;36.722;-4.462;2023-02-17T01:21:37;101693.88;;;9.56;85.73
60725;BME280;59881;36.722;-4.462;2023-02-17T01:24:05;101900.72;;;10.75;86.03
60725;BME280;59881;36.722;-4.462;2023-02-17T01:26:32;101891.09;;;10.74;86.47
60725;BME280;59881;36.722;-4.462;2023-02-17T01:28:58;101893.75;;;10.74;86.15
60725;BME280;59881;36.722;-4.462;2023-02-17T01:31:25;101900.72;;;10.75;86.42
60725;BME280;59881;36.722;-4.462;2023-02-17T01:33:59;101567.19;;;8.29;86.59
60725;BME280;59881;36.722;-4.462;2023-02-17T01:36:27;101891.78;;;10.78;87.05
60725;BME280;59881;36.722;-4.462;2023-02-17T01:38:53;101901.50;;;10.77;86.66
60725;BME280;59881;36.722;-4.462;2023-02-17T01:41:22;101893.59;;;10.77;86.90
60725;BME280;59881;36.722;-4.462;2023-02-17T01:44:08;101891.78;;;10.78;86.99
60725;BME280;59881;36.722;-4.462;2023-02-17T01:46:34;101174.72;;;6.47;86.81
60725;BME280;59881;36.722;-4.462;2023-02-17T01:49:03;101302.44;;;7.24;86.64
60725;BME280;59881;36.722;-4.462;2023-02-17T01:51:35;101822.06;;;9.92;87.51
60725;BME280;59881;36.722;-4.462;2023-02-17T01:54:06;101867.41;;;10.18;87.82
60725;BME280;59881;36.722;-4.462;2023-02-17T01:56:35;101507.38;;;8.57;87.71
60725;BME280;59881;36.722;-4.462;2023-02-17T01:59:06;101152.06;;;6.04;87.51
60725;BME280;59881;36.722;-4.462;2023-02-17T02:01:33;101850.50;;;10.79;87.98
60725;BME280;59881;36.722;-4.462;2023-02-17T02:03:59;101840.75;;;10.81;88.37
60725;BME280;59881;36.722;-4.462;2023-02-17T02:06:27;101853.97;;;10.79;88.00
60725;BME280;59881;36.722;-4.462;2023-02-17T02:09:02;101856.69;;;10.77;87.88
60725;BME280;59881;36.722;-4.462;2023-02-17T02:11:28;101977.94;;;10.77;88.36
60725;BME280;59881;36.722;-4.462;2023-02-17T02:13:54;101247.88;;;6.28;87.31
60725;BME280;59881;36.722;-4.462;2023-02-17T02:30:26;101678.03;;;9.58;87.69
60725;BME280;59881;36.722;-4.462;2023-02-17T02:35:47;101355.03;;;7.60;87.59
60725;BME280;59881;36.722;-4.462;2023-02-17T02:38:27;101844.41;;;10.59;87.82
60725;BME280;59881;36.722;-4.462;2023-02-17T02:41:09;101760.03;;;9.86;88.28
60725;BME280;59881;36.722;-4.462;2023-02-17T02:43:37;101442.53;;;8.19;87.96
60725;BME280;59881;36.722;-4.462;2023-02-17T02:46:03;101904.28;;;10.55;87.99
60725;BME280;59881;36.722;-4.462;2023-02-17T02:48:29;101405.97;;;7.12;87.84
60725;BME280;59881;36.722;-4.462;2023-02-17T02:59:17;101821.38;;;10.45;88.19
60725;BME280;59881;36.722;-4.462;2023-02-17T03:02:22;101421.50;;;8.00;88.21
60725;BME280;59881;36.722;-4.462;2023-02-17T03:10:10;101205.72;;;6.56;88.96
60725;BME280;59881;36.722;-4.462;2023-02-17T03:12:37;101306.47;;;7.52;89.01
60725;BME280;59881;36.722;-4.462;2023-02-17T03:15:26;101490.06;;;7.93;88.95
60725;BME280;59881;36.722;-4.462;2023-02-17T03:17:55;100808.13;;;4.26;88.60
60725;BME280;59881;36.722;-4.462;2023-02-17T03:20:21;101941.13;;;10.57;89.15
60725;BME280;59881;36.722;-4.462;2023-02-17T03:22:47;101829.44;;;10.60;89.54
60725;BME280;59881;36.722;-4.462;2023-02-17T03:25:13;101853.09;;;10.61;89.86
60725;BME280;59881;36.722;-4.462;2023-02-17T03:27:39;100851.28;;;3.88;88.50
60725;BME280;59881;36.722;-4.462;2023-02-17T03:30:06;101905.75;;;10.63;89.92
60725;BME280;59881;36.722;-4.462;2023-02-17T03:32:32;101228.19;;;6.62;89.10
60725;BME280;59881;36.722;-4.462;2023-02-17T03:34:58;101213.38;;;6.61;89.48
60725;BME280;59881;36.722;-4.462;2023-02-17T03:37:23;100760.56;;;3.25;88.92
60725;BME280;59881;36.722;-4.462;2023-02-17T03:39:49;101048.81;;;4.55;89.20
60725;BME280;59881;36.722;-4.462;2023-02-17T03:42:14;101593.25;;;8.34;89.61
60725;BME280;59881;36.722;-4.462;2023-02-17T03:44:40;101524.00;;;9.14;89.80
60725;BME280;59881;36.722;-4.462;2023-02-17T03:47:07;101390.88;;;8.39;90.33
60725;BME280;59881;36.722;-4.462;2023-02-17T03:49:32;101268.44;;;7.41;90.25
60725;BME280;59881;36.722;-4.462;2023-02-17T03:51:58;101793.50;;;10.93;90.84
60725;BME280;59881;36.722;-4.462;2023-02-17T03:54:24;101323.47;;;8.01;90.00
60725;BME280;59881;36.722;-4.462;2023-02-17T03:56:50;101008.78;;;6.10;89.77
60725;BME280;59881;36.722;-4.462;2023-02-17T03:59:15;101737.75;;;9.93;90.12
60725;BME280;59881;36.722;-4.462;2023-02-17T04:01:41;101936.81;;;10.92;89.73
60725;BME280;59881;36.722;-4.462;2023-02-17T04:04:06;101484.47;;;8.98;89.47
60725;BME280;59881;36.722;-4.462;2023-02-17T04:06:32;101826.31;;;10.88;89.91
60725;BME280;59881;36.722;-4.462;2023-02-17T04:08:58;101627.97;;;9.02;89.63
60725;BME280;59881;36.722;-4.462;2023-02-17T04:11:24;101683.88;;;9.06;89.77
60725;BME280;59881;36.722;-4.462;2023-02-17T04:13:49;102053.31;;;10.82;89.48
60725;BME280;59881;36.722;-4.462;2023-02-17T04:16:15;101400.88;;;7.09;88.97
60725;BME280;59881;36.722;-4.462;2023-02-17T04:18:40;101223.28;;;7.16;89.00
60725;BME280;59881;36.722;-4.462;2023-02-17T04:21:06;101836.75;;;10.72;89.33
60725;BME280;59881;36.722;-4.462;2023-02-17T04:23:33;101059.41;;;5.87;89.08
60725;BME280;59881;36.722;-4.462;2023-02-17T04:25:59;101098.06;;;6.03;89.11
60725;BME280;59881;36.722;-4.462;2023-02-17T04:28:25;101822.09;;;10.66;89.97
60725;BME280;59881;36.722;-4.462;2023-02-17T04:30:50;101143.66;;;5.95;89.59
60725;BME280;59881;36.722;-4.462;2023-02-17T04:33:16;100826.59;;;4.44;89.45
60725;BME280;59881;36.722;-4.462;2023-02-17T04:35:42;101352.06;;;7.88;89.58
60725;BME280;59881;36.722;-4.462;2023-02-17T04:38:08;100790.66;;;4.50;89.00
60725;BME280;59881;36.722;-4.462;2023-02-17T04:40:35;101871.09;;;10.70;89.63
60725;BME280;59881;36.722;-4.462;2023-02-17T04:43:01;101512.22;;;8.26;89.57
60725;BME280;59881;36.722;-4.462;2023-02-17T04:45:27;101848.16;;;10.72;89.65
60725;BME280;59881;36.722;-4.462;2023-02-17T04:47:53;101866.38;;;10.77;90.37
60725;BME280;59881;36.722;-4.462;2023-02-17T04:50:18;101752.31;;;9.63;89.91
60725;BME280;59881;36.722;-4.462;2023-02-17T04:52:44;101452.59;;;7.69;89.87
60725;BME280;59881;36.722;-4.462;2023-02-17T04:55:10;101231.41;;;6.89;89.61
60725;BME280;59881;36.722;-4.462;2023-02-17T04:57:35;101822.44;;;10.95;90.38
60725;BME280;59881;36.722;-4.462;2023-02-17T05:00:02;101923.34;;;10.98;90.40
60725;BME280;59881;36.722;-4.462;2023-02-17T05:02:28;100961.28;;;4.70;89.78
60725;BME280;59881;36.722;-4.462;2023-02-17T05:04:54;101616.66;;;8.81;90.00
60725;BME280;59881;36.722;-4.462;2023-02-17T05:07:20;101565.84;;;8.62;90.48
60725;BME280;59881;36.722;-4.462;2023-02-17T05:09:46;101572.16;;;7.95;90.17
60725;BME280;59881;36.722;-4.462;2023-02-17T05:12:11;101339.38;;;8.36;90.27
60725;BME280;59881;36.722;-4.462;2023-02-17T05:14:37;101091.06;;;6.65;89.96
60725;BME280;59881;36.722;-4.462;2023-02-17T05:17:03;101829.69;;;11.42;90.10
60725;BME280;59881;36.722;-4.462;2023-02-17T05:19:28;101827.59;;;11.49;90.20
60725;BME280;59881;36.722;-4.462;2023-02-17T05:21:54;101823.88;;;11.53;89.86
60725;BME280;59881;36.722;-4.462;2023-02-17T05:24:19;101824.56;;;11.56;89.60
60725;BME280;59881;36.722;-4.462;2023-02-17T05:26:45;101178.94;;;6.91;88.89
60725;BME280;59881;36.722;-4.462;2023-02-17T05:29:10;101462.34;;;9.21;89.21
60725;BME280;59881;36.722;-4.462;2023-02-17T05:31:36;101412.47;;;9.20;88.57
60725;BME280;59881;36.722;-4.462;2023-02-17T05:34:02;101823.31;;;11.64;88.44
60725;BME280;59881;36.722;-4.462;2023-02-17T05:36:27;101130.47;;;6.82;88.06
60725;BME280;59881;36.722;-4.462;2023-02-17T05:38:53;101869.13;;;11.63;88.39
60725;BME280;59881;36.722;-4.462;2023-02-17T05:41:19;101923.53;;;11.65;88.78
60725;BME280;59881;36.722;-4.462;2023-02-17T05:43:45;101469.78;;;9.30;87.86
60725;BME280;59881;36.722;-4.462;2023-02-17T05:46:10;101838.06;;;11.68;88.29
60725;BME280;59881;36.722;-4.462;2023-02-17T05:48:36;101288.78;;;8.33;87.82
60725;BME280;59881;36.722;-4.462;2023-02-17T05:51:02;101850.97;;;10.50;87.69
60725;BME280;59881;36.722;-4.462;2023-02-17T05:53:28;101851.94;;;11.71;87.70
60725;BME280;59881;36.722;-4.462;2023-02-17T05:55:53;101301.19;;;8.10;87.34
60725;BME280;59881;36.722;-4.462;2023-02-17T05:58:19;101660.13;;;10.56;87.88
60725;BME280;59881;36.722;-4.462;2023-02-17T06:00:44;101736.28;;;10.78;87.27
60725;BME280;59881;36.722;-4.462;2023-02-17T06:03:11;101573.69;;;9.20;86.94
60725;BME280;59881;36.722;-4.462;2023-02-17T06:05:36;101866.59;;;11.77;87.40
60725;BME280;59881;36.722;-4.462;2023-02-17T06:08:02;101994.94;;;11.79;87.70
60725;BME280;59881;36.722;-4.462;2023-02-17T06:10:28;101664.38;;;10.59;87.39
60725;BME280;59881;36.722;-4.462;2023-02-17T06:12:53;101146.94;;;6.84;86.66
60725;BME280;59881;36.722;-4.462;2023-02-17T06:15:19;101542.56;;;9.30;86.59
60725;BME280;59881;36.722;-4.462;2023-02-17T06:17:44;101811.13;;;10.39;86.82
60725;BME280;59881;36.722;-4.462;2023-02-17T06:20:12;101986.69;;;10.40;87.01
60725;BME280;59881;36.722;-4.462;2023-02-17T06:22:37;100593.75;;;4.18;86.02
60725;BME280;59881;36.722;-4.462;2023-02-17T06:25:03;101314.97;;;8.53;86.52
60725;BME280;59881;36.722;-4.462;2023-02-17T06:27:29;101595.78;;;10.25;86.76
60725;BME280;59881;36.722;-4.462;2023-02-17T06:29:54;101368.56;;;8.85;86.64
60725;BME280;59881;36.722;-4.462;2023-02-17T06:32:20;101205.19;;;7.87;86.60
60725;BME280;59881;36.722;-4.462;2023-02-17T06:34:45;101533.47;;;8.80;86.46
60725;BME280;59881;36.722;-4.462;2023-02-17T06:37:11;101545.78;;;9.54;86.59
60725;BME280;59881;36.722;-4.462;2023-02-17T06:39:36;101401.38;;;8.96;86.43
60725;BME280;59881;36.722;-4.462;2023-02-17T06:42:02;101695.91;;;10.60;86.64
60725;BME280;59881;36.722;-4.462;2023-02-17T06:44:28;101629.28;;;10.04;86.28
60725;BME280;59881;36.722;-4.462;2023-02-17T06:46:54;101463.06;;;9.42;86.40
60725;BME280;59881;36.722;-4.462;2023-02-17T06:49:19;101523.31;;;9.83;86.16
60725;BME280;59881;36.722;-4.462;2023-02-17T06:51:45;101760.19;;;9.83;86.74
60725;BME280;59881;36.722;-4.462;2023-02-17T06:54:10;102061.41;;;12.07;86.14
60725;BME280;59881;36.722;-4.462;2023-02-17T06:56:36;101979.41;;;12.08;86.44
60725;BME280;59881;36.722;-4.462;2023-02-17T06:59:02;101171.56;;;7.40;85.54
60725;BME280;59881;36.722;-4.462;2023-02-17T07:01:28;101893.97;;;12.09;85.94
60725;BME280;59881;36.722;-4.462;2023-02-17T07:03:55;101964.88;;;12.17;85.53
60725;BME280;59881;36.722;-4.462;2023-02-17T07:06:22;101898.69;;;12.20;85.44
60725;BME280;59881;36.722;-4.462;2023-02-17T07:08:48;101594.34;;;10.37;84.87
60725;BME280;59881;36.722;-4.462;2023-02-17T07:11:15;101378.81;;;9.09;84.74
60725;BME280;59881;36.722;-4.462;2023-02-17T07:13:42;101830.59;;;11.76;84.62
60725;BME280;59881;36.722;-4.462;2023-02-17T07:16:08;101896.72;;;12.39;84.44
60725;BME280;59881;36.722;-4.462;2023-02-17T07:18:34;101894.59;;;12.46;84.14
60725;BME280;59881;36.722;-4.462;2023-02-17T07:21:00;101999.91;;;12.54;83.31
60725;BME280;59881;36.722;-4.462;2023-02-17T07:23:26;101092.03;;;7.58;81.49
60725;BME280;59881;36.722;-4.462;2023-02-17T07:25:51;101895.13;;;12.69;80.81
60725;BME280;59881;36.722;-4.462;2023-02-17T07:28:17;101888.63;;;12.74;79.70
60725;BME280;59881;36.722;-4.462;2023-02-17T07:30:43;101876.84;;;12.80;78.98
60725;BME280;59881;36.722;-4.462;2023-02-17T07:33:09;101880.84;;;12.87;78.08
60725;BME280;59881;36.722;-4.462;2023-02-17T07:35:42;101873.59;;;12.91;77.52
60725;BME280;59881;36.722;-4.462;2023-02-17T07:38:11;101875.97;;;12.95;76.42
60725;BME280;59881;36.722;-4.462;2023-02-17T07:40:36;101858.56;;;12.91;74.36
60725;BME280;59881;36.722;-4.462;2023-02-17T07:43:02;101263.50;;;9.36;72.77
60725;BME280;59881;36.722;-4.462;2023-02-17T07:45:28;101919.06;;;12.66;71.77
60725;BME280;59881;36.722;-4.462;2023-02-17T07:47:54;101908.69;;;13.24;71.03
60725;BME280;59881;36.722;-4.462;2023-02-17T07:50:20;101701.03;;;12.27;70.32
60725;BME280;59881;36.722;-4.462;2023-02-17T07:52:45;101883.50;;;13.33;70.04
60725;BME280;59881;36.722;-4.462;2023-02-17T07:55:11;101800.31;;;12.77;70.04
60725;BME280;59881;36.722;-4.462;2023-02-17T07:57:36;101891.31;;;13.35;70.21
60725;BME280;59881;36.722;-4.462;2023-02-17T08:00:03;101406.72;;;10.32;70.12
60725;BME280;59881;36.722;-4.462;2023-02-17T08:02:29;101851.28;;;13.11;70.56
60725;BME280;59881;36.722;-4.462;2023-02-17T08:04:54;101861.09;;;13.09;70.75
60725;BME280;59881;36.722;-4.462;2023-02-17T08:07:20;101909.09;;;13.33;71.09
60725;BME280;59881;36.722;-4.462;2023-02-17T08:09:45;101914.38;;;13.33;71.25
60725;BME280;59881;36.722;-4.462;2023-02-17T08:12:29;101490.47;;;10.74;71.09
60725;BME280;59881;36.722;-4.462;2023-02-17T08:15:13;101930.09;;;13.36;71.64
60725;BME280;59881;36.722;-4.462;2023-02-17T08:17:39;101933.59;;;13.36;71.73
60725;BME280;59881;36.722;-4.462;2023-02-17T08:20:05;101490.22;;;10.63;71.41
60725;BME280;59881;36.722;-4.462;2023-02-17T08:22:32;101934.56;;;13.35;71.72
60725;BME280;59881;36.722;-4.462;2023-02-17T08:24:57;101922.94;;;13.38;71.92
60725;BME280;59881;36.722;-4.462;2023-02-17T08:27:23;101885.97;;;13.20;71.79
60725;BME280;59881;36.722;-4.462;2023-02-17T08:29:49;101923.22;;;13.48;71.87
60725;BME280;59881;36.722;-4.462;2023-02-17T08:32:16;101927.31;;;13.53;71.67
60725;BME280;59881;36.722;-4.462;2023-02-17T08:34:42;102007.31;;;13.58;71.54
60725;BME280;59881;36.722;-4.462;2023-02-17T08:37:09;101910.78;;;13.64;70.97
60725;BME280;59881;36.722;-4.462;2023-02-17T08:39:34;101931.22;;;13.76;70.66
60725;BME280;59881;36.722;-4.462;2023-02-17T08:42:01;101893.28;;;13.61;70.38
60725;BME280;59881;36.722;-4.462;2023-02-17T08:44:27;101907.47;;;13.75;70.04
60725;BME280;59881;36.722;-4.462;2023-02-17T08:46:53;101906.25;;;13.80;70.01
60725;BME280;59881;36.722;-4.462;2023-02-17T08:49:21;101895.59;;;13.82;69.81
60725;BME280;59881;36.722;-4.462;2023-02-17T08:51:48;101943.09;;;14.14;69.69
60725;BME280;59881;36.722;-4.462;2023-02-17T08:54:13;101948.78;;;14.22;69.71
60725;BME280;59881;36.722;-4.462;2023-02-17T08:56:40;101918.69;;;14.08;69.56
60725;BME280;59881;36.722;-4.462;2023-02-17T08:59:07;101811.00;;;13.50;69.51
60725;BME280;59881;36.722;-4.462;2023-02-17T09:01:33;101905.13;;;14.13;69.49
60725;BME280;59881;36.722;-4.462;2023-02-17T09:04:01;101946.78;;;14.40;69.16
60725;BME280;59881;36.722;-4.462;2023-02-17T09:06:34;101943.75;;;14.46;69.18
60725;BME280;59881;36.722;-4.462;2023-02-17T09:09:00;101951.03;;;14.57;68.46
60725;BME280;59881;36.722;-4.462;2023-02-17T09:11:26;101686.53;;;12.34;67.69
60725;BME280;59881;36.722;-4.462;2023-02-17T09:13:52;101941.41;;;14.83;67.49
60725;BME280;59881;36.722;-4.462;2023-02-17T09:16:17;101651.59;;;13.16;66.83
60725;BME280;59881;36.722;-4.462;2023-02-17T09:18:45;101941.69;;;15.05;67.07
60725;BME280;59881;36.722;-4.462;2023-02-17T09:21:12;101916.28;;;14.88;67.31
60725;BME280;59881;36.722;-4.462;2023-02-17T09:23:38;101821.63;;;14.35;67.04
60725;BME280;59881;36.722;-4.462;2023-02-17T09:26:06;101856.88;;;14.64;67.06
60725;BME280;59881;36.722;-4.462;2023-02-17T09:28:33;101809.31;;;14.34;67.12
60725;BME280;59881;36.722;-4.462;2023-02-17T09:31:06;101809.75;;;14.40;67.13
60725;BME280;59881;36.722;-4.462;2023-02-17T09:33:32;101911.53;;;14.94;67.28
60725;BME280;59881;36.722;-4.462;2023-02-17T09:35:57;102145.09;;;15.35;66.66
60725;BME280;59881;36.722;-4.462;2023-02-17T09:38:23;101511.56;;;12.57;65.82
60725;BME280;59881;36.722;-4.462;2023-02-17T09:40:49;101997.78;;;15.41;65.81
60725;BME280;59881;36.722;-4.462;2023-02-17T09:43:18;101969.53;;;15.40;65.17
60725;BME280;59881;36.722;-4.462;2023-02-17T09:45:51;101970.78;;;15.34;65.10
60725;BME280;59881;36.722;-4.462;2023-02-17T09:48:23;101954.84;;;15.34;64.89
60725;BME280;59881;36.722;-4.462;2023-02-17T09:50:54;101969.84;;;15.35;64.98
60725;BME280;59881;36.722;-4.462;2023-02-17T09:55:57;101981.94;;;15.26;64.94
60725;BME280;59881;36.722;-4.462;2023-02-17T09:58:38;101913.38;;;14.79;64.92
60725;BME280;59881;36.722;-4.462;2023-02-17T10:01:09;101987.75;;;15.19;64.38
60725;BME280;59881;36.722;-4.462;2023-02-17T10:04:01;102010.97;;;15.15;63.55
60725;BME280;59881;36.722;-4.462;2023-02-17T10:07:01;101978.59;;;15.10;63.59
60725;BME280;59881;36.722;-4.462;2023-02-17T10:12:17;101482.97;;;12.07;62.65
60725;BME280;59881;36.722;-4.462;2023-02-17T10:14:54;101965.03;;;15.00;62.18
60725;BME280;59881;36.722;-4.462;2023-02-17T10:20:33;101421.09;;;11.66;61.71
60725;BME280;59881;36.722;-4.462;2023-02-17T10:23:12;101950.75;;;14.61;61.86
60725;BME280;59881;36.722;-4.462;2023-02-17T10:28:17;101965.13;;;14.72;61.38
60725;BME280;59881;36.722;-4.462;2023-02-17T10:34:01;102022.59;;;14.85;60.23
60725;BME280;59881;36.722;-4.462;2023-02-17T10:39:46;101633.31;;;12.10;59.32
60725;BME280;59881;36.722;-4.462;2023-02-17T10:42:17;101997.69;;;14.88;58.97
60725;BME280;59881;36.722;-4.462;2023-02-17T10:44:44;101896.22;;;14.28;58.23
60725;BME280;59881;36.722;-4.462;2023-02-17T10:47:10;101999.53;;;15.00;58.28
60725;BME280;59881;36.722;-4.462;2023-02-17T10:49:41;101974.66;;;14.88;58.35
60725;BME280;59881;36.722;-4.462;2023-02-17T10:52:17;102027.22;;;15.10;58.09
60725;BME280;59881;36.722;-4.462;2023-02-17T10:54:49;102022.66;;;15.13;58.12
60725;BME280;59881;36.722;-4.462;2023-02-17T10:57:19;102031.56;;;15.11;58.21
60725;BME280;59881;36.722;-4.462;2023-02-17T10:59:47;102015.63;;;15.11;58.01
60725;BME280;59881;36.722;-4.462;2023-02-17T11:04:48;101998.84;;;15.11;56.90
60725;BME280;59881;36.722;-4.462;2023-02-17T11:07:16;101997.72;;;15.15;57.02
60725;BME280;59881;36.722;-4.462;2023-02-17T11:09:51;102006.59;;;15.14;56.04
60725;BME280;59881;36.722;-4.462;2023-02-17T11:12:27;101613.19;;;12.23;56.14
60725;BME280;59881;36.722;-4.462;2023-02-17T11:14:55;102007.94;;;14.80;59.46
60725;BME280;59881;36.722;-4.462;2023-02-17T11:17:38;102000.38;;;14.31;63.87
60725;BME280;59881;36.722;-4.462;2023-02-17T11:22:43;101997.88;;;12.26;78.93
60725;BME280;59881;36.722;-4.462;2023-02-17T11:25:25;101622.88;;;9.37;84.79
60725;BME280;59881;36.722;-4.462;2023-02-17T11:27:53;102037.75;;;11.86;88.27
60725;BME280;59881;36.722;-4.462;2023-02-17T11:30:20;102180.28;;;12.07;90.00
60725;BME280;59881;36.722;-4.462;2023-02-17T11:32:47;102102.19;;;12.18;87.99
60725;BME280;59881;36.722;-4.462;2023-02-17T11:38:03;102090.47;;;12.57;86.54
60725;BME280;59881;36.722;-4.462;2023-02-17T11:40:34;101641.59;;;9.86;85.05
60725;BME280;59881;36.722;-4.462;2023-02-17T11:43:01;101636.81;;;9.76;85.90
60725;BME280;59881;36.722;-4.462;2023-02-17T11:45:37;101605.66;;;9.49;89.88
60725;BME280;59881;36.722;-4.462;2023-02-17T11:54:59;102051.28;;;12.81;87.72
60725;BME280;59881;36.722;-4.462;2023-02-17T11:57:43;102059.34;;;13.12;80.16
60725;BME280;59881;36.722;-4.462;2023-02-17T12:00:19;102017.53;;;13.18;76.64
60725;BME280;59881;36.722;-4.462;2023-02-17T12:11:55;102008.38;;;13.70;73.50
60725;BME280;59881;36.722;-4.462;2023-02-17T12:14:47;101991.94;;;13.65;72.85
60725;BME280;59881;36.722;-4.462;2023-02-17T12:23:07;102103.84;;;13.99;69.31
60725;BME280;59881;36.722;-4.462;2023-02-17T12:28:44;101982.75;;;14.15;68.97
60725;BME280;59881;36.722;-4.462;2023-02-17T12:34:17;101956.91;;;14.33;67.63
60725;BME280;59881;36.722;-4.462;2023-02-17T12:36:47;101984.94;;;14.37;67.91
60725;BME280;59881;36.722;-4.462;2023-02-17T12:39:20;101986.72;;;14.37;68.21
60725;BME280;59881;36.722;-4.462;2023-02-17T12:44:54;101965.63;;;14.35;68.17
60725;BME280;59881;36.722;-4.462;2023-02-17T12:47:24;101872.78;;;13.79;67.97
60725;BME280;59881;36.722;-4.462;2023-02-17T12:50:18;101966.38;;;14.37;68.33
60725;BME280;59881;36.722;-4.462;2023-02-17T12:52:48;101959.06;;;14.41;66.90
60725;BME280;59881;36.722;-4.462;2023-02-17T12:55:21;101893.22;;;14.06;66.21
60725;BME280;59881;36.722;-4.462;2023-02-17T13:03:31;101977.41;;;13.86;67.85
60725;BME280;59881;36.722;-4.462;2023-02-17T13:06:03;101949.59;;;13.79;68.53
60725;BME280;59881;36.722;-4.462;2023-02-17T13:08:56;101905.38;;;13.65;68.45
60725;BME280;59881;36.722;-4.462;2023-02-17T13:11:31;101993.00;;;13.47;71.42
60725;BME280;59881;36.722;-4.462;2023-02-17T13:14:25;101967.78;;;13.09;74.74
60725;BME280;59881;36.722;-4.462;2023-02-17T13:16:51;101901.25;;;12.69;76.02
